Hovedside
METAR-TAF:

METAR-TAF

Lufthavner :

Anguilla, Anguilla

breddegrad: 18-12-17N, lengdegrad: 063-03-18W, høyde over havet: 31 m

Gjeldene værobservasjon

Denne rapporten ble laget for 16 minutter siden, klokken 15:00 UTC
Vind 12 kt fra Sørøst
Temperatur 30°C
Luftfuktighet 79%
Trykk 1016 hPa
Sikt 10 km eller mer
Spredte skyer i en høyde av 1900 ft, Tårnskyer (cumulus).

METAR: TQPF 191500Z 14012KT 9999 SCT019TCU 30/26 Q1016 RMK TCU-N,W

Tid: 11:16 (15:16 UTC)

Varsel

Denne rapporten ble laget for 4 timer og 16 minutter siden, klokken 11:00 UTC
Varsel gyldig fra 19. klokken 12 UTC til 20. klokken 12 UTC
Vind 9 kt fra Øst-sørøst
Sikt 10 km eller mer
Spredte skyer i en høyde av 2200 ft

TAF: TQPF 191100Z 1912/2012 11009KT 9999 SCT022

Værobservasjoner og værvarsel for over 4000 flyplasser (METAR- og TAF-rapporter).

Tilgjengelige stasjoner er representert av de røde og gule prikkene på kartet.

Hold musepekeren over prikken for å se navnet på stasjonen.

Klikk så for å se værobservasjoner og -varsler.

For å forandre kartet kan du klikke på den grønne knappen med svart kryss for å zoome inn, på den grønne knappen med strek for å zoome ut, eller på de grønne pilene for å se tilstøtende kart.


METAR-TAF: